Time;durP1;ratioP1;P1;durP2;ratioP2;P2;SDS_P1;SDS_P2;PMS_P1;PMS_P2;Temp;Humidity;BMP_temperature;BMP_pressure;BME280_temperature;BME280_humidity;BME280_pressure;Samples;Min_cycle;Max_cycle;Signal;HPM_P1;HPM_P2
2023/08/24 00:01:37;;;;;;;6.40;2.83;;;18.90;99.90;;;;;;5067484;28;20127;-50
2023/08/24 00:04:02;;;;;;;7.05;3.08;;;18.80;99.90;;;;;;5067755;28;20492;-51
2023/08/24 00:06:28;;;;;;;6.35;2.60;;;18.90;99.90;;;;;;5069624;28;20037;-51
2023/08/24 00:08:54;;;;;;;6.30;2.90;;;18.80;99.90;;;;;;5066315;28;20041;-51
2023/08/24 00:11:20;;;;;;;6.10;2.63;;;18.80;99.90;;;;;;5067940;28;20032;-53
2023/08/24 00:13:52;;;;;;;4.95;2.75;;;18.80;99.90;;;;;;5066335;28;20045;-51
2023/08/24 00:16:21;;;;;;;5.05;3.05;;;18.80;99.90;;;;;;5068692;28;20036;-50
2023/08/24 00:18:47;;;;;;;5.65;2.88;;;18.90;99.90;;;;;;5067023;28;20024;-52
2023/08/24 00:21:22;;;;;;;5.97;2.92;;;18.80;99.90;;;;;;5067666;28;20051;-52
2023/08/24 00:23:49;;;;;;;5.95;3.05;;;18.80;99.90;;;;;;5067346;28;20535;-52
2023/08/24 00:26:16;;;;;;;6.40;3.10;;;18.70;99.90;;;;;;5052292;28;20040;-49
2023/08/24 00:28:42;;;;;;;8.85;3.22;;;18.70;99.90;;;;;;5067111;28;20043;-48
2023/08/24 00:31:08;;;;;;;8.05;3.78;;;18.70;99.90;;;;;;5069340;28;20499;-51
2023/08/24 00:33:34;;;;;;;8.63;3.80;;;18.70;99.90;;;;;;5068353;28;20134;-51
2023/08/24 00:36:01;;;;;;;7.35;3.88;;;18.70;99.90;;;;;;5066930;28;20171;-51
2023/08/24 00:38:27;;;;;;;6.82;3.78;;;18.80;99.90;;;;;;5067805;28;20040;-52
2023/08/24 00:40:53;;;;;;;7.47;3.88;;;18.70;99.90;;;;;;5067314;28;20115;-50
2023/08/24 00:43:23;;;;;;;7.05;3.80;;;18.70;99.90;;;;;;5069327;28;20040;-52
2023/08/24 00:45:51;;;;;;;6.65;4.00;;;18.70;99.90;;;;;;5067826;28;20028;-51
2023/08/24 00:48:18;;;;;;;7.25;3.40;;;18.60;99.90;;;;;;5067499;28;20144;-51
2023/08/24 00:50:44;;;;;;;6.32;3.58;;;18.60;99.90;;;;;;5067136;28;20368;-52
2023/08/24 00:53:10;;;;;;;9.45;4.03;;;18.50;99.90;;;;;;5064921;28;20020;-52
2023/08/24 00:55:36;;;;;;;5.82;3.60;;;18.60;99.90;;;;;;5065896;28;20044;-51
2023/08/24 00:58:03;;;;;;;7.53;3.65;;;18.60;99.90;;;;;;5066714;28;20577;-50
2023/08/24 01:00:29;;;;;;;8.32;3.50;;;18.60;99.90;;;;;;5066589;28;20395;-49
2023/08/24 01:02:55;;;;;;;7.22;3.55;;;18.60;99.90;;;;;;5066878;28;20123;-49
2023/08/24 01:05:20;;;;;;;8.02;3.58;;;18.60;99.90;;;;;;5066960;28;20385;-52
2023/08/24 01:07:47;;;;;;;6.00;3.45;;;18.60;99.90;;;;;;5067086;28;20037;-49
2023/08/24 01:10:13;;;;;;;6.15;3.53;;;18.60;99.90;;;;;;5067737;28;20113;-53
2023/08/24 01:12:50;;;;;;;8.10;3.50;;;18.60;99.90;;;;;;5067839;28;20076;-50
2023/08/24 01:15:29;;;;;;;9.23;3.30;;;18.70;99.90;;;;;;5065723;28;20043;-51
2023/08/24 01:18:00;;;;;;;7.35;3.70;;;18.60;99.90;;;;;;5065889;28;20449;-51
2023/08/24 01:20:26;;;;;;;6.80;3.63;;;18.60;99.90;;;;;;5066903;28;20036;-53
2023/08/24 01:23:03;;;;;;;6.22;3.65;;;18.60;99.90;;;;;;5066798;28;20079;-51
2023/08/24 01:25:38;;;;;;;8.60;4.18;;;18.60;99.90;;;;;;5066331;28;20097;-52
2023/08/24 01:28:06;;;;;;;8.57;3.95;;;18.60;99.90;;;;;;5065479;28;20048;-52
2023/08/24 01:30:33;;;;;;;6.82;4.00;;;18.60;99.90;;;;;;5068179;28;20085;-52
2023/08/24 01:33:03;;;;;;;8.55;4.22;;;18.60;99.90;;;;;;5066250;28;20029;-53
2023/08/24 01:35:29;;;;;;;8.20;4.13;;;18.50;99.90;;;;;;5065549;28;20043;-51
2023/08/24 01:37:55;;;;;;;6.78;3.85;;;18.50;99.90;;;;;;5064445;28;20048;-51
2023/08/24 01:40:27;;;;;;;8.18;3.95;;;18.40;99.90;;;;;;5065026;28;20463;-49
2023/08/24 01:43:03;;;;;;;6.63;4.03;;;18.40;99.90;;;;;;5064898;28;20480;-51
2023/08/24 01:45:31;;;;;;;9.55;4.70;;;18.40;99.90;;;;;;5066882;28;20506;-51
2023/08/24 01:47:59;;;;;;;8.43;4.32;;;18.40;99.90;;;;;;5065067;28;20041;-52
2023/08/24 01:50:25;;;;;;;8.13;4.53;;;18.30;99.90;;;;;;5066756;28;20113;-51
2023/08/24 01:52:51;;;;;;;8.95;4.70;;;18.40;99.90;;;;;;5067870;28;20094;-52
2023/08/24 01:55:20;;;;;;;7.55;4.28;;;18.40;99.90;;;;;;5066625;28;20499;-52
2023/08/24 01:57:47;;;;;;;7.40;4.18;;;18.40;99.90;;;;;;5066545;28;20396;-50
2023/08/24 02:00:13;;;;;;;8.65;4.15;;;18.30;99.90;;;;;;5065206;28;20036;-53
2023/08/24 02:02:39;;;;;;;8.27;4.43;;;18.30;99.90;;;;;;5065646;28;20043;-52
2023/08/24 02:05:05;;;;;;;7.43;4.55;;;18.30;99.90;;;;;;5063502;28;20060;-52
2023/08/24 02:07:31;;;;;;;8.80;4.65;;;18.30;99.90;;;;;;5064648;28;20045;-52
2023/08/24 02:09:57;;;;;;;8.52;4.40;;;18.30;99.90;;;;;;5064983;28;20052;-50
2023/08/24 02:12:22;;;;;;;9.43;4.60;;;18.30;99.90;;;;;;5068423;28;20040;-52
2023/08/24 02:14:48;;;;;;;7.90;4.45;;;18.20;99.90;;;;;;5053103;28;20040;-49
2023/08/24 02:17:14;;;;;;;9.73;4.55;;;18.30;99.90;;;;;;5068427;28;20086;-51
2023/08/24 02:19:41;;;;;;;7.75;4.85;;;18.20;99.90;;;;;;5071262;28;20041;-53
2023/08/24 02:22:08;;;;;;;8.07;4.57;;;18.20;99.90;;;;;;5068240;28;20490;-48
2023/08/24 02:24:33;;;;;;;10.63;4.70;;;18.20;99.90;;;;;;5069727;28;20089;-51
2023/08/24 02:27:00;;;;;;;8.43;4.93;;;18.20;99.90;;;;;;5071236;28;20032;-52
2023/08/24 02:29:25;;;;;;;9.52;4.50;;;18.10;99.90;;;;;;5069682;28;20044;-50
2023/08/24 02:31:51;;;;;;;9.18;5.13;;;18.10;99.90;;;;;;5069638;28;20039;-54
2023/08/24 02:34:18;;;;;;;11.07;5.80;;;18.10;99.90;;;;;;5068624;28;20352;-50
2023/08/24 02:36:44;;;;;;;8.15;5.05;;;18.20;99.90;;;;;;5068738;28;20126;-51
2023/08/24 02:39:10;;;;;;;8.60;5.57;;;18.10;99.90;;;;;;5069224;28;20102;-50
2023/08/24 02:41:35;;;;;;;9.50;5.95;;;18.00;99.90;;;;;;5068831;28;20062;-50
2023/08/24 02:44:02;;;;;;;11.48;7.07;;;18.10;99.90;;;;;;5070424;28;20033;-49
2023/08/24 02:46:28;;;;;;;10.20;6.47;;;18.00;99.90;;;;;;5070031;28;20036;-51
2023/08/24 02:48:54;;;;;;;10.10;6.68;;;18.00;99.90;;;;;;5068565;28;20508;-52
2023/08/24 02:51:22;;;;;;;9.75;6.13;;;18.00;99.90;;;;;;5069795;28;20058;-50
2023/08/24 02:53:48;;;;;;;10.52;5.93;;;17.90;99.90;;;;;;5068459;28;20040;-49
2023/08/24 02:56:14;;;;;;;10.07;5.85;;;17.90;99.90;;;;;;5068967;28;20453;-51
2023/08/24 02:58:40;;;;;;;11.27;6.30;;;17.80;99.90;;;;;;5068860;28;20124;-52
2023/08/24 03:01:07;;;;;;;11.30;6.38;;;17.90;99.90;;;;;;5068187;28;20044;-49
2023/08/24 03:03:36;;;;;;;9.90;6.53;;;17.80;99.90;;;;;;5068360;28;20102;-49
2023/08/24 03:06:04;;;;;;;10.18;6.75;;;17.90;99.90;;;;;;5067457;28;20075;-49
2023/08/24 03:08:31;;;;;;;9.60;6.53;;;17.90;99.90;;;;;;5068578;28;20443;-48
2023/08/24 03:10:58;;;;;;;11.15;7.18;;;17.80;99.90;;;;;;5068078;28;20048;-51
2023/08/24 03:13:25;;;;;;;10.05;6.38;;;17.70;99.90;;;;;;5069215;28;20527;-49
2023/08/24 03:15:52;;;;;;;9.57;6.65;;;17.80;99.90;;;;;;5070788;28;20036;-49
2023/08/24 03:18:18;;;;;;;10.70;6.80;;;17.70;99.90;;;;;;5067773;28;20051;-50
2023/08/24 03:20:46;;;;;;;11.05;6.68;;;17.70;99.90;;;;;;5067664;28;20430;-52
2023/08/24 03:23:12;;;;;;;10.45;7.07;;;17.70;99.90;;;;;;5068341;28;20081;-51
2023/08/24 03:25:39;;;;;;;13.70;7.25;;;17.70;99.90;;;;;;5067738;28;20048;-51
2023/08/24 03:28:06;;;;;;;13.15;6.40;;;17.70;99.90;;;;;;5067186;28;20106;-48
2023/08/24 03:30:33;;;;;;;11.52;7.15;;;17.60;99.90;;;;;;5067102;28;20049;-50
2023/08/24 03:32:59;;;;;;;9.68;6.70;;;17.60;99.90;;;;;;5068056;28;20519;-50
2023/08/24 03:35:25;;;;;;;9.68;6.90;;;17.60;99.90;;;;;;5069020;28;20075;-51
2023/08/24 03:37:51;;;;;;;11.57;7.28;;;17.60;99.90;;;;;;5067482;28;20032;-49
2023/08/24 03:40:17;;;;;;;9.32;6.55;;;17.60;99.90;;;;;;5068182;28;20044;-50
2023/08/24 03:42:42;;;;;;;10.50;7.05;;;17.50;99.90;;;;;;5069240;28;20484;-52
2023/08/24 03:45:08;;;;;;;12.77;7.25;;;17.50;99.90;;;;;;5069235;28;20058;-51
2023/08/24 03:47:34;;;;;;;9.88;7.80;;;17.50;99.90;;;;;;5068727;28;20379;-49
2023/08/24 03:50:00;;;;;;;13.13;7.70;;;17.50;99.90;;;;;;5068722;28;20123;-50
2023/08/24 03:52:25;;;;;;;12.73;8.18;;;17.40;99.90;;;;;;5067242;28;20117;-50
2023/08/24 03:54:51;;;;;;;10.15;7.72;;;17.40;99.90;;;;;;5066843;28;20036;-50
2023/08/24 03:57:17;;;;;;;11.18;7.30;;;17.40;99.90;;;;;;5066992;28;20040;-52
2023/08/24 03:59:42;;;;;;;12.98;8.05;;;17.40;99.90;;;;;;5066566;28;20051;-47
2023/08/24 04:02:08;;;;;;;11.50;7.38;;;17.30;99.90;;;;;;5069109;28;20052;-52
2023/08/24 04:04:34;;;;;;;10.00;7.57;;;17.30;99.90;;;;;;5066157;28;20465;-50
2023/08/24 04:07:00;;;;;;;11.68;7.38;;;17.20;99.90;;;;;;5069345;28;20048;-49
2023/08/24 04:09:26;;;;;;;12.88;8.20;;;17.10;99.90;;;;;;5067953;28;20056;-50
2023/08/24 04:11:51;;;;;;;12.32;7.90;;;17.10;99.90;;;;;;5065924;28;20037;-51
2023/08/24 04:14:17;;;;;;;12.75;8.35;;;17.10;99.90;;;;;;5068297;28;20036;-52
2023/08/24 04:16:43;;;;;;;10.50;8.05;;;17.10;99.90;;;;;;5068554;28;20037;-51
2023/08/24 04:19:09;;;;;;;10.77;7.65;;;17.10;99.90;;;;;;5069429;28;20407;-53
2023/08/24 04:21:35;;;;;;;10.65;7.90;;;17.10;99.90;;;;;;5066646;28;20140;-51
2023/08/24 04:24:00;;;;;;;11.93;7.95;;;17.20;99.90;;;;;;5067195;28;20569;-51
2023/08/24 04:26:26;;;;;;;11.93;8.05;;;17.10;99.90;;;;;;5067498;28;20096;-53
2023/08/24 04:28:52;;;;;;;9.90;8.32;;;17.10;99.90;;;;;;5067529;28;20040;-48
2023/08/24 04:31:17;;;;;;;12.98;7.40;;;17.10;99.90;;;;;;5066022;28;20135;-50
2023/08/24 04:33:43;;;;;;;13.68;8.80;;;17.10;99.90;;;;;;5067821;28;20040;-49
2023/08/24 04:36:09;;;;;;;12.40;7.97;;;17.00;99.90;;;;;;5067623;28;20043;-52
2023/08/24 04:38:34;;;;;;;12.15;7.80;;;17.10;99.90;;;;;;5063257;28;20044;-52
2023/08/24 04:41:00;;;;;;;12.57;8.35;;;17.00;99.90;;;;;;5068755;28;20041;-49
2023/08/24 04:43:26;;;;;;;10.07;8.00;;;17.00;99.90;;;;;;5063509;28;20571;-52
2023/08/24 04:45:54;;;;;;;12.27;8.45;;;17.00;99.90;;;;;;5067375;28;20052;-48
2023/08/24 04:48:25;;;;;;;14.48;8.15;;;17.00;99.90;;;;;;5066670;28;20106;-52
2023/08/24 04:50:52;;;;;;;9.50;7.97;;;16.90;99.90;;;;;;5066326;28;20365;-53
2023/08/24 04:53:19;;;;;;;11.32;8.98;;;16.90;99.90;;;;;;5065485;28;20091;-51
2023/08/24 04:55:45;;;;;;;10.65;9.23;;;16.90;99.90;;;;;;5067232;28;20472;-48
2023/08/24 04:58:12;;;;;;;13.82;9.02;;;16.90;99.90;;;;;;5067634;28;20040;-49
2023/08/24 05:00:38;;;;;;;13.23;9.73;;;16.90;99.90;;;;;;5066032;28;20505;-49
2023/08/24 05:03:07;;;;;;;14.52;10.57;;;17.00;99.90;;;;;;5068526;28;20119;-50
2023/08/24 05:05:34;;;;;;;13.13;10.80;;;16.90;99.90;;;;;;5065388;28;20102;-48
2023/08/24 05:08:01;;;;;;;12.80;9.75;;;16.90;99.90;;;;;;5065359;28;20131;-51
2023/08/24 05:10:31;;;;;;;14.48;9.52;;;16.90;99.90;;;;;;5065765;28;20071;-52
2023/08/24 05:12:57;;;;;;;12.40;10.15;;;16.90;99.90;;;;;;5065955;28;20045;-48
2023/08/24 05:15:22;;;;;;;15.00;10.43;;;16.90;99.90;;;;;;5065650;28;20471;-50
2023/08/24 05:17:48;;;;;;;12.38;9.85;;;16.90;99.90;;;;;;5066063;28;20056;-49
2023/08/24 05:20:14;;;;;;;13.02;10.15;;;17.00;99.90;;;;;;5067360;28;20036;-49
2023/08/24 05:22:40;;;;;;;14.93;10.40;;;17.00;99.90;;;;;;5065145;28;20072;-52
2023/08/24 05:25:06;;;;;;;12.07;10.02;;;17.00;99.90;;;;;;5069234;28;20035;-51
2023/08/24 05:27:32;;;;;;;12.25;9.45;;;17.00;99.90;;;;;;5066661;28;20043;-52
2023/08/24 05:29:58;;;;;;;11.93;9.80;;;17.00;99.90;;;;;;5066748;28;20048;-52
2023/08/24 05:32:24;;;;;;;13.10;9.80;;;17.00;99.90;;;;;;5064514;28;20481;-54
2023/08/24 05:34:50;;;;;;;15.15;10.55;;;17.10;99.90;;;;;;5051622;28;20036;-52
2023/08/24 05:37:16;;;;;;;12.90;10.45;;;17.10;99.90;;;;;;5065072;28;20494;-49
2023/08/24 05:39:42;;;;;;;12.07;9.57;;;17.10;99.90;;;;;;5065722;28;20124;-51
2023/08/24 05:42:09;;;;;;;14.68;9.70;;;17.10;99.90;;;;;;5068128;28;20071;-50
2023/08/24 05:44:35;;;;;;;11.43;9.30;;;17.20;99.90;;;;;;5065881;28;20062;-52
2023/08/24 05:47:00;;;;;;;11.60;9.43;;;17.30;99.90;;;;;;5065729;28;20098;-50
2023/08/24 05:49:26;;;;;;;14.07;9.63;;;17.30;99.90;;;;;;5065417;28;20752;-53
2023/08/24 05:51:52;;;;;;;10.90;8.88;;;17.40;99.90;;;;;;5066361;28;20063;-50
2023/08/24 05:54:18;;;;;;;11.13;9.10;;;17.50;99.90;;;;;;5067349;28;20502;-51
2023/08/24 05:56:48;;;;;;;12.23;9.05;;;17.40;99.90;;;;;;5065350;28;20486;-50
2023/08/24 05:59:14;;;;;;;12.90;8.80;;;17.50;99.90;;;;;;5064862;28;20437;-49
2023/08/24 06:01:41;;;;;;;11.80;8.80;;;17.50;99.90;;;;;;5066346;28;20075;-48
2023/08/24 06:04:10;;;;;;;12.23;8.90;;;17.50;99.90;;;;;;5065800;28;20037;-51
2023/08/24 06:06:36;;;;;;;12.27;9.30;;;17.50;99.90;;;;;;5065678;28;20041;-52
2023/08/24 06:09:05;;;;;;;12.05;8.52;;;17.60;99.90;;;;;;5064893;28;20116;-52
2023/08/24 06:11:33;;;;;;;12.88;9.80;;;17.50;99.90;;;;;;5063710;28;20174;-52
2023/08/24 06:13:58;;;;;;;14.00;9.15;;;17.50;99.90;;;;;;5064690;28;20049;-48
2023/08/24 06:16:24;;;;;;;12.30;8.98;;;17.60;99.90;;;;;;5065302;28;20385;-53
2023/08/24 06:18:50;;;;;;;13.38;9.50;;;17.60;99.90;;;;;;5066360;28;20399;-51
2023/08/24 06:21:16;;;;;;;11.63;9.25;;;17.70;99.90;;;;;;5063796;28;20511;-52
2023/08/24 06:23:44;;;;;;;13.20;9.15;;;17.80;99.90;;;;;;5065949;28;20055;-52
2023/08/24 06:26:09;;;;;;;12.13;9.02;;;17.80;99.90;;;;;;5067409;28;20178;-50
2023/08/24 06:28:35;;;;;;;12.52;8.57;;;17.80;99.90;;;;;;5067173;28;20505;-50
2023/08/24 06:31:01;;;;;;;11.30;8.95;;;17.90;99.90;;;;;;5096448;28;20045;-53
2023/08/24 06:33:37;;;;;;;15.32;9.30;;;18.00;99.90;;;;;;5064433;28;20036;-53
2023/08/24 06:36:07;;;;;;;13.27;9.38;;;18.00;99.90;;;;;;5065965;28;20041;-51
2023/08/24 06:38:33;;;;;;;13.70;9.05;;;18.10;99.90;;;;;;5064101;28;20045;-51
2023/08/24 06:40:59;;;;;;;13.82;8.82;;;18.10;99.90;;;;;;5066135;28;20391;-51
2023/08/24 06:43:28;;;;;;;18.00;9.50;;;18.20;99.90;;;;;;5066570;28;20441;-51
2023/08/24 06:45:57;;;;;;;15.52;9.63;;;18.30;99.90;;;;;;5065179;28;20055;-48
2023/08/24 06:48:23;;;;;;;15.38;10.18;;;18.30;99.90;;;;;;5063749;28;20060;-52
2023/08/24 06:50:49;;;;;;;12.88;10.13;;;18.30;99.90;;;;;;5066329;28;20466;-51
2023/08/24 06:53:14;;;;;;;12.88;9.85;;;18.40;99.90;;;;;;5065026;28;20037;-53
2023/08/24 06:55:40;;;;;;;13.57;9.90;;;18.50;99.90;;;;;;5066351;28;20144;-54
2023/08/24 06:58:06;;;;;;;13.95;9.63;;;18.60;99.90;;;;;;5066039;28;20050;-53
2023/08/24 07:00:36;;;;;;;12.57;9.68;;;18.60;99.90;;;;;;5067961;28;20044;-50
2023/08/24 07:03:02;;;;;;;14.88;9.90;;;18.70;99.90;;;;;;5068984;28;20118;-51
2023/08/24 07:05:28;;;;;;;14.25;9.90;;;18.70;99.90;;;;;;5068590;28;20527;-52
2023/08/24 07:07:54;;;;;;;17.25;10.40;;;18.70;99.90;;;;;;5069014;28;20071;-49
2023/08/24 07:10:20;;;;;;;13.45;9.40;;;18.80;99.90;;;;;;5066912;28;20044;-52
2023/08/24 07:12:46;;;;;;;15.55;10.05;;;18.80;99.90;;;;;;5069020;28;20094;-50
2023/08/24 07:15:12;;;;;;;14.95;10.13;;;19.80;99.90;;;;;;5066909;28;20427;-51
2023/08/24 07:17:39;;;;;;;15.10;10.60;;;18.90;99.90;;;;;;5069508;28;20037;-51
2023/08/24 07:20:06;;;;;;;13.15;9.70;;;19.10;99.90;;;;;;5070281;28;20043;-53
2023/08/24 07:22:32;;;;;;;14.77;10.38;;;19.10;99.90;;;;;;5068156;28;20045;-48
2023/08/24 07:24:58;;;;;;;13.35;10.65;;;19.20;99.90;;;;;;5068188;28;20499;-53
2023/08/24 07:27:24;;;;;;;13.65;10.32;;;19.30;99.90;;;;;;5069935;28;20042;-53
2023/08/24 07:29:49;;;;;;;11.27;10.07;;;19.30;99.90;;;;;;5067773;28;20055;-50
2023/08/24 07:32:15;;;;;;;12.15;10.00;;;19.40;99.90;;;;;;5068062;28;20056;-52
2023/08/24 07:34:41;;;;;;;14.60;9.93;;;19.40;99.90;;;;;;5068410;28;20033;-52
2023/08/24 07:37:07;;;;;;;16.92;10.48;;;19.40;99.90;;;;;;5068034;28;20495;-52
2023/08/24 07:39:33;;;;;;;14.75;9.63;;;19.60;99.90;;;;;;5067659;28;20043;-53
2023/08/24 07:41:59;;;;;;;13.35;10.85;;;19.60;99.90;;;;;;5066554;28;20067;-51
2023/08/24 07:44:25;;;;;;;13.50;10.68;;;19.70;99.90;;;;;;5069689;28;20036;-52
2023/08/24 07:46:50;;;;;;;14.35;10.57;;;19.80;99.90;;;;;;5069029;28;20048;-53
2023/08/24 07:49:16;;;;;;;11.55;9.93;;;19.90;99.90;;;;;;5053167;28;20414;-52
2023/08/24 07:51:42;;;;;;;13.27;9.65;;;19.90;99.90;;;;;;5067296;28;20044;-52
2023/08/24 07:54:08;;;;;;;13.88;10.30;;;20.00;99.90;;;;;;5068176;28;20118;-51
2023/08/24 07:56:35;;;;;;;15.63;10.10;;;20.10;99.90;;;;;;5068911;28;20032;-51
2023/08/24 07:59:00;;;;;;;15.55;10.25;;;20.20;99.90;;;;;;5068702;28;20021;-50
2023/08/24 08:01:26;;;;;;;12.90;10.20;;;20.30;99.90;;;;;;5067015;28;20048;-52
2023/08/24 08:03:52;;;;;;;12.48;9.65;;;20.30;99.90;;;;;;5068185;28;20049;-49
2023/08/24 08:06:18;;;;;;;13.40;10.35;;;20.40;99.90;;;;;;5069462;28;20067;-51
2023/08/24 08:08:45;;;;;;;16.23;10.02;;;20.50;99.90;;;;;;5067492;28;20131;-50
2023/08/24 08:11:11;;;;;;;13.13;9.88;;;20.50;99.90;;;;;;5066609;28;20052;-52
2023/08/24 08:13:37;;;;;;;12.10;9.70;;;20.60;99.90;;;;;;5068858;28;20040;-51
2023/08/24 08:16:07;;;;;;;14.00;10.25;;;20.70;99.90;;;;;;5067046;28;20044;-52
2023/08/24 08:18:33;;;;;;;14.00;9.48;;;20.80;99.90;;;;;;5067322;28;20032;-52
2023/08/24 08:20:59;;;;;;;15.57;10.07;;;20.90;99.90;;;;;;5068171;28;20522;-49
2023/08/24 08:23:25;;;;;;;15.05;10.10;;;21.00;99.90;;;;;;5067630;28;20048;-52
2023/08/24 08:25:51;;;;;;;14.50;9.90;;;21.10;99.90;;;;;;5067573;28;20050;-52
2023/08/24 08:28:18;;;;;;;14.00;10.15;;;21.20;99.90;;;;;;5067810;28;20041;-53
2023/08/24 08:30:44;;;;;;;12.45;9.27;;;21.30;99.90;;;;;;5068450;28;20048;-51
2023/08/24 08:33:10;;;;;;;13.13;9.35;;;21.40;99.90;;;;;;5066418;28;20426;-52
2023/08/24 08:35:38;;;;;;;14.10;9.65;;;21.50;99.90;;;;;;5068505;28;20036;-52
2023/08/24 08:38:06;;;;;;;16.15;9.50;;;21.60;99.90;;;;;;5067376;28;20040;-51
2023/08/24 08:40:32;;;;;;;12.43;9.20;;;21.70;99.90;;;;;;5067227;28;20032;-53
2023/08/24 08:42:58;;;;;;;14.13;8.93;;;21.80;99.90;;;;;;5065581;28;20047;-52
2023/08/24 08:45:28;;;;;;;12.90;8.63;;;21.90;99.90;;;;;;5066349;28;20090;-51
2023/08/24 08:48:02;;;;;;;12.52;8.82;;;22.10;99.90;;;;;;5067113;28;20048;-51
2023/08/24 08:50:29;;;;;;;12.50;9.60;;;22.20;99.90;;;;;;5067730;28;20483;-50
2023/08/24 08:52:56;;;;;;;16.23;8.90;;;22.40;99.90;;;;;;5065371;28;20434;-52
2023/08/24 08:55:22;;;;;;;13.18;8.98;;;22.50;99.90;;;;;;5066493;28;20070;-52
2023/08/24 08:57:49;;;;;;;12.32;8.65;;;22.60;99.90;;;;;;5067476;28;20040;-51
2023/08/24 09:00:16;;;;;;;14.52;8.73;;;22.60;99.90;;;;;;5064921;28;20429;-53
2023/08/24 09:02:47;;;;;;;11.55;8.63;;;22.80;99.90;;;;;;5066567;28;20046;-53
2023/08/24 09:05:14;;;;;;;13.13;8.07;;;22.80;99.90;;;;;;5067914;28;20060;-51
2023/08/24 09:07:41;;;;;;;11.13;8.73;;;22.90;99.90;;;;;;5066919;28;20442;-53
2023/08/24 09:10:07;;;;;;;12.50;8.13;;;23.00;99.90;;;;;;5066187;28;20044;-52
2023/08/24 09:12:34;;;;;;;11.43;8.57;;;23.00;99.90;;;;;;5064615;28;20442;-51
2023/08/24 09:15:02;;;;;;;14.52;9.70;;;23.00;99.90;;;;;;5067418;28;20028;-50
2023/08/24 09:17:28;;;;;;;12.07;8.57;;;23.10;99.90;;;;;;5065827;28;20045;-53
2023/08/24 09:19:58;;;;;;;10.13;7.43;;;23.20;99.90;;;;;;5066028;28;20121;-52
2023/08/24 09:22:24;;;;;;;11.93;8.10;;;23.20;99.90;;;;;;5066118;28;20037;-52
2023/08/24 09:24:50;;;;;;;12.07;8.43;;;23.10;99.90;;;;;;5067668;28;20040;-49
2023/08/24 09:27:17;;;;;;;10.63;7.55;;;23.20;99.90;;;;;;5065808;28;20048;-52
2023/08/24 09:29:48;;;;;;;9.85;7.13;;;23.30;99.90;;;;;;5067707;28;20041;-52
2023/08/24 09:32:14;;;;;;;9.75;7.78;;;23.20;99.90;;;;;;5067219;28;20091;-52
2023/08/24 09:34:39;;;;;;;11.35;7.47;;;23.20;99.90;;;;;;5067029;28;20072;-49
2023/08/24 09:37:14;;;;;;;11.57;7.13;;;23.20;99.90;;;;;;5065617;28;20110;-53
2023/08/24 09:39:40;;;;;;;12.30;7.82;;;23.10;99.90;;;;;;5066877;28;20059;-52
2023/08/24 09:42:05;;;;;;;10.65;7.10;;;23.10;99.90;;;;;;5068433;28;20036;-53
2023/08/24 09:44:31;;;;;;;10.40;7.20;;;23.00;99.90;;;;;;5067128;28;20111;-52
2023/08/24 09:46:57;;;;;;;10.38;7.28;;;23.00;99.90;;;;;;5065296;28;20036;-50
2023/08/24 09:49:22;;;;;;;12.48;7.97;;;23.00;99.90;;;;;;5064992;28;20040;-52
2023/08/24 09:51:50;;;;;;;13.13;8.48;;;23.00;99.90;;;;;;5050994;28;20028;-51
2023/08/24 09:54:21;;;;;;;12.45;7.80;;;22.90;99.90;;;;;;5066866;28;20091;-51
2023/08/24 09:56:48;;;;;;;11.93;8.05;;;22.90;99.90;;;;;;5065971;28;20033;-53
2023/08/24 09:59:22;;;;;;;13.75;8.73;;;22.90;99.90;;;;;;5066153;28;20079;-50
2023/08/24 10:01:49;;;;;;;11.70;8.30;;;22.90;99.90;;;;;;5068315;28;20032;-50
2023/08/24 10:04:22;;;;;;;10.43;7.65;;;22.80;99.90;;;;;;5066667;28;20095;-51
2023/08/24 10:06:59;;;;;;;12.50;7.93;;;22.80;99.90;;;;;;5064695;28;20059;-52
2023/08/24 10:09:38;;;;;;;15.07;8.68;;;22.80;99.90;;;;;;5063583;28;20032;-52
2023/08/24 10:12:06;;;;;;;13.07;8.77;;;22.80;99.90;;;;;;5065383;28;20479;-50
2023/08/24 10:14:44;;;;;;;13.65;8.65;;;22.80;99.90;;;;;;5063809;28;20376;-52
2023/08/24 10:17:11;;;;;;;11.82;8.35;;;22.70;99.90;;;;;;5064116;28;20033;-52
2023/08/24 10:19:37;;;;;;;11.98;8.43;;;22.70;99.90;;;;;;5063894;28;20078;-53
2023/08/24 10:22:05;;;;;;;15.48;8.68;;;22.70;99.90;;;;;;5066307;28;20054;-53
2023/08/24 10:24:32;;;;;;;11.63;8.07;;;22.70;99.90;;;;;;5069093;28;20044;-51
2023/08/24 10:26:59;;;;;;;13.20;8.20;;;22.70;99.90;;;;;;5068448;28;20135;-53
2023/08/24 10:29:28;;;;;;;13.27;7.55;;;22.70;99.90;;;;;;5062837;28;20032;-53
2023/08/24 10:31:55;;;;;;;13.35;8.30;;;22.70;99.90;;;;;;5068873;28;20617;-49
2023/08/24 10:34:20;;;;;;;13.75;8.35;;;22.70;99.90;;;;;;5071071;28;20028;-50
2023/08/24 10:36:52;;;;;;;13.77;8.27;;;22.70;99.90;;;;;;5073546;28;20086;-53
2023/08/24 10:39:20;;;;;;;12.82;8.35;;;22.60;99.90;;;;;;5072427;28;20111;-53
2023/08/24 10:41:50;;;;;;;11.07;8.13;;;22.60;99.90;;;;;;5074281;28;20464;-49
2023/08/24 10:44:37;;;;;;;14.10;8.25;;;22.70;99.90;;;;;;5072444;28;20033;-52
2023/08/24 10:47:16;;;;;;;12.85;8.05;;;22.70;99.90;;;;;;5074307;28;20461;-50
2023/08/24 10:50:00;;;;;;;10.65;7.50;;;22.70;99.90;;;;;;5072450;28;20037;-53
2023/08/24 10:52:30;;;;;;;16.25;7.55;;;22.70;99.90;;;;;;5074523;28;20847;-53
2023/08/24 10:54:56;;;;;;;15.27;8.13;;;22.70;99.90;;;;;;5074237;28;20076;-54
2023/08/24 10:57:28;;;;;;;12.30;7.95;;;22.70;99.90;;;;;;5073268;28;20087;-50
2023/08/24 10:59:59;;;;;;;13.40;7.35;;;22.80;99.90;;;;;;5074209;28;20553;-48
2023/08/24 11:02:25;;;;;;;13.70;7.78;;;22.90;99.90;;;;;;5074367;28;20074;-53
2023/08/24 11:05:33;;;;;;;12.48;7.60;;;22.90;99.90;;;;;;5074035;28;20056;-51
2023/08/24 11:08:01;;;;;;;14.68;8.18;;;23.00;99.90;;;;;;5051300;28;20044;-53
2023/08/24 11:10:46;;;;;;;9.90;8.25;;;23.00;99.90;;;;;;5070053;28;20084;-51
2023/08/24 11:13:16;;;;;;;11.95;8.30;;;23.10;99.90;;;;;;5074143;28;20033;-51
2023/08/24 11:15:47;;;;;;;13.20;8.60;;;23.20;99.90;;;;;;5073853;28;20090;-51
2023/08/24 11:18:26;;;;;;;11.18;7.97;;;23.20;99.90;;;;;;5073824;28;20376;-50
2023/08/24 11:20:55;;;;;;;14.20;8.20;;;23.30;99.90;;;;;;5073650;28;20072;-53
2023/08/24 11:23:23;;;;;;;14.30;8.48;;;23.30;99.90;;;;;;5073172;28;20102;-51
2023/08/24 11:25:56;;;;;;;12.60;7.88;;;23.40;99.90;;;;;;5073511;28;20044;-51
2023/08/24 11:28:23;;;;;;;10.68;8.43;;;23.40;99.90;;;;;;5071557;28;20048;-52
2023/08/24 11:30:54;;;;;;;13.52;8.77;;;23.50;99.90;;;;;;5068141;28;20422;-53
2023/08/24 11:33:31;;;;;;;9.50;8.45;;;23.60;99.90;;;;;;5070879;28;20032;-53
2023/08/24 11:35:58;;;;;;;12.30;8.73;;;23.70;99.90;;;;;;5071608;28;20116;-53
2023/08/24 11:38:24;;;;;;;15.05;9.77;;;23.70;99.90;;;;;;5070097;28;20032;-51
2023/08/24 11:40:50;;;;;;;11.82;8.73;;;23.80;99.90;;;;;;5069531;28;20476;-51
2023/08/24 11:43:26;;;;;;;12.98;9.35;;;23.80;99.90;;;;;;5067453;28;20094;-51
2023/08/24 11:45:54;;;;;;;13.18;9.40;;;23.70;99.90;;;;;;5068601;28;20115;-51
2023/08/24 11:48:29;;;;;;;12.93;9.88;;;23.80;99.90;;;;;;5071365;28;20522;-52
2023/08/24 11:50:55;;;;;;;13.48;10.18;;;23.80;99.90;;;;;;5067986;28;20033;-52
2023/08/24 11:53:24;;;;;;;15.32;9.50;;;23.70;99.90;;;;;;5069160;28;20044;-51
2023/08/24 11:55:52;;;;;;;14.40;10.13;;;23.70;99.90;;;;;;5069880;28;20036;-51
2023/08/24 11:58:18;;;;;;;13.07;9.90;;;23.70;99.90;;;;;;5071497;28;20386;-49
2023/08/24 12:00:46;;;;;;;14.02;9.98;;;23.70;99.90;;;;;;5069928;28;20040;-51
2023/08/24 12:03:12;;;;;;;13.98;10.38;;;23.70;99.90;;;;;;5070521;28;20107;-51
2023/08/24 12:05:38;;;;;;;14.00;10.40;;;23.70;99.90;;;;;;5071915;28;20083;-50
2023/08/24 12:08:06;;;;;;;13.77;10.15;;;23.80;99.90;;;;;;5070860;28;20101;-52
2023/08/24 12:10:32;;;;;;;14.15;10.85;;;23.90;99.90;;;;;;5071503;28;20119;-51
2023/08/24 12:13:05;;;;;;;11.82;9.82;;;23.90;99.90;;;;;;5070792;28;20120;-53
2023/08/24 12:15:33;;;;;;;13.73;9.63;;;24.00;99.90;;;;;;5070075;28;20048;-54
2023/08/24 12:18:07;;;;;;;14.82;10.60;;;24.10;99.90;;;;;;5065622;28;20768;-51
2023/08/24 12:20:33;;;;;;;16.33;10.30;;;24.10;99.90;;;;;;5064060;28;20045;-51
2023/08/24 12:22:59;;;;;;;14.80;9.57;;;24.10;99.90;;;;;;5070176;28;20456;-51
2023/08/24 12:25:25;;;;;;;14.80;10.07;;;24.20;99.90;;;;;;5069770;28;20526;-52
2023/08/24 12:27:52;;;;;;;11.40;9.77;;;24.20;99.90;;;;;;5062769;28;20075;-52
2023/08/24 12:30:19;;;;;;;12.52;9.52;;;24.30;99.90;;;;;;5068543;28;20072;-49
2023/08/24 12:32:50;;;;;;;14.85;9.70;;;24.30;99.90;;;;;;5070793;28;20125;-51
2023/08/24 12:35:17;;;;;;;11.82;9.55;;;24.40;99.90;;;;;;5070415;28;20063;-50
2023/08/24 12:37:43;;;;;;;14.82;10.15;;;24.40;99.90;;;;;;5068900;28;20112;-50
2023/08/24 12:40:09;;;;;;;11.63;10.07;;;24.40;99.90;;;;;;5067912;28;20132;-49